sensor_id;sensor_type;location;lat;lon;timestamp;temperature;humidity
23102;DHT22;11720;51.214;22.574;2023-04-15T00:00:31;9.40;99.90
23102;DHT22;11720;51.214;22.574;2023-04-15T00:02:58;9.20;99.90
23102;DHT22;11720;51.214;22.574;2023-04-15T00:05:24;9.40;99.90
23102;DHT22;11720;51.214;22.574;2023-04-15T00:10:16;9.10;99.90
23102;DHT22;11720;51.214;22.574;2023-04-15T00:12:42;9.50;99.90
23102;DHT22;11720;51.214;22.574;2023-04-15T00:15:08;7.90;99.90
23102;DHT22;11720;51.214;22.574;2023-04-15T00:17:36;9.00;99.90
23102;DHT22;11720;51.214;22.574;2023-04-15T00:20:04;9.10;99.90
23102;DHT22;11720;51.214;22.574;2023-04-15T00:22:31;9.20;99.90
23102;DHT22;11720;51.214;22.574;2023-04-15T00:24:57;9.40;99.90
23102;DHT22;11720;51.214;22.574;2023-04-15T00:29:49;9.00;99.90
23102;DHT22;11720;51.214;22.574;2023-04-15T00:34:41;9.00;99.90
23102;DHT22;11720;51.214;22.574;2023-04-15T00:37:08;9.00;99.90
23102;DHT22;11720;51.214;22.574;2023-04-15T00:39:34;8.90;99.90
23102;DHT22;11720;51.214;22.574;2023-04-15T00:42:01;9.00;99.90
23102;DHT22;11720;51.214;22.574;2023-04-15T00:44:32;9.20;99.90
23102;DHT22;11720;51.214;22.574;2023-04-15T00:47:00;9.10;99.90
23102;DHT22;11720;51.214;22.574;2023-04-15T00:49:28;8.90;99.90
23102;DHT22;11720;51.214;22.574;2023-04-15T00:51:54;9.10;99.90
23102;DHT22;11720;51.214;22.574;2023-04-15T00:54:20;8.90;99.90
23102;DHT22;11720;51.214;22.574;2023-04-15T00:56:46;9.10;99.90
23102;DHT22;11720;51.214;22.574;2023-04-15T00:59:16;8.80;99.90
23102;DHT22;11720;51.214;22.574;2023-04-15T01:01:43;8.90;99.90
23102;DHT22;11720;51.214;22.574;2023-04-15T01:04:09;9.10;99.90
23102;DHT22;11720;51.214;22.574;2023-04-15T01:06:37;8.90;99.90
23102;DHT22;11720;51.214;22.574;2023-04-15T01:09:10;8.90;99.90
23102;DHT22;11720;51.214;22.574;2023-04-15T01:11:38;8.90;99.90
23102;DHT22;11720;51.214;22.574;2023-04-15T01:14:04;8.90;99.90
23102;DHT22;11720;51.214;22.574;2023-04-15T01:16:30;7.10;99.90
23102;DHT22;11720;51.214;22.574;2023-04-15T01:18:56;9.10;99.90
23102;DHT22;11720;51.214;22.574;2023-04-15T01:21:24;9.30;99.90
23102;DHT22;11720;51.214;22.574;2023-04-15T01:23:52;9.10;99.90
23102;DHT22;11720;51.214;22.574;2023-04-15T01:26:20;8.80;99.90
23102;DHT22;11720;51.214;22.574;2023-04-15T01:28:46;6.70;99.90
23102;DHT22;11720;51.214;22.574;2023-04-15T01:31:13;8.80;99.90
23102;DHT22;11720;51.214;22.574;2023-04-15T01:33:40;9.00;99.90
23102;DHT22;11720;51.214;22.574;2023-04-15T01:36:08;8.80;99.90
23102;DHT22;11720;51.214;22.574;2023-04-15T01:38:36;9.40;99.90
23102;DHT22;11720;51.214;22.574;2023-04-15T01:41:02;9.00;99.90
23102;DHT22;11720;51.214;22.574;2023-04-15T01:43:33;8.80;99.90
23102;DHT22;11720;51.214;22.574;2023-04-15T01:45:59;8.80;99.90
23102;DHT22;11720;51.214;22.574;2023-04-15T01:48:24;9.20;99.90
23102;DHT22;11720;51.214;22.574;2023-04-15T01:50:53;8.80;99.90
23102;DHT22;11720;51.214;22.574;2023-04-15T01:53:18;9.00;99.90
23102;DHT22;11720;51.214;22.574;2023-04-15T01:55:45;8.80;99.90
23102;DHT22;11720;51.214;22.574;2023-04-15T01:58:11;8.80;99.90
23102;DHT22;11720;51.214;22.574;2023-04-15T02:00:36;8.90;99.90
23102;DHT22;11720;51.214;22.574;2023-04-15T02:03:02;8.80;99.90
23102;DHT22;11720;51.214;22.574;2023-04-15T02:05:33;8.80;99.90
23102;DHT22;11720;51.214;22.574;2023-04-15T02:07:59;9.40;99.90
23102;DHT22;11720;51.214;22.574;2023-04-15T02:10:25;8.90;99.90
23102;DHT22;11720;51.214;22.574;2023-04-15T02:12:50;8.80;99.90
23102;DHT22;11720;51.214;22.574;2023-04-15T02:15:19;8.50;99.90
23102;DHT22;11720;51.214;22.574;2023-04-15T02:17:45;8.90;99.90
23102;DHT22;11720;51.214;22.574;2023-04-15T02:20:16;7.50;99.90
23102;DHT22;11720;51.214;22.574;2023-04-15T02:22:42;6.20;99.90
23102;DHT22;11720;51.214;22.574;2023-04-15T02:25:08;8.80;99.90
23102;DHT22;11720;51.214;22.574;2023-04-15T02:27:35;9.40;99.90
23102;DHT22;11720;51.214;22.574;2023-04-15T02:30:01;8.80;99.90
23102;DHT22;11720;51.214;22.574;2023-04-15T02:34:53;8.80;99.90
23102;DHT22;11720;51.214;22.574;2023-04-15T02:37:19;9.40;99.90
23102;DHT22;11720;51.214;22.574;2023-04-15T02:39:46;7.70;99.90
23102;DHT22;11720;51.214;22.574;2023-04-15T02:42:11;8.80;99.90
23102;DHT22;11720;51.214;22.574;2023-04-15T02:44:38;9.40;99.90
23102;DHT22;11720;51.214;22.574;2023-04-15T02:47:03;9.00;99.90
23102;DHT22;11720;51.214;22.574;2023-04-15T02:49:31;8.90;99.90
23102;DHT22;11720;51.214;22.574;2023-04-15T02:54:25;8.80;99.90
23102;DHT22;11720;51.214;22.574;2023-04-15T02:56:53;8.80;99.90
23102;DHT22;11720;51.214;22.574;2023-04-15T02:59:20;8.80;99.90
23102;DHT22;11720;51.214;22.574;2023-04-15T03:05:13;8.80;99.90
23102;DHT22;11720;51.214;22.574;2023-04-15T03:10:14;8.90;99.90
23102;DHT22;11720;51.214;22.574;2023-04-15T03:15:07;8.90;99.90
23102;DHT22;11720;51.214;22.574;2023-04-15T03:17:33;8.80;99.90
23102;DHT22;11720;51.214;22.574;2023-04-15T03:20:04;6.70;99.90
23102;DHT22;11720;51.214;22.574;2023-04-15T03:22:33;9.00;99.90
23102;DHT22;11720;51.214;22.574;2023-04-15T03:24:58;9.10;99.90
23102;DHT22;11720;51.214;22.574;2023-04-15T03:27:25;9.40;99.90
23102;DHT22;11720;51.214;22.574;2023-04-15T03:29:53;9.00;99.90
23102;DHT22;11720;51.214;22.574;2023-04-15T03:34:45;8.80;99.90
23102;DHT22;11720;51.214;22.574;2023-04-15T03:37:10;9.30;99.90
23102;DHT22;11720;51.214;22.574;2023-04-15T03:39:38;8.80;99.90
23102;DHT22;11720;51.214;22.574;2023-04-15T03:42:04;8.80;99.90
23102;DHT22;11720;51.214;22.574;2023-04-15T03:46:57;8.80;99.90
23102;DHT22;11720;51.214;22.574;2023-04-15T03:49:22;8.80;99.90
23102;DHT22;11720;51.214;22.574;2023-04-15T03:51:48;8.70;99.90
23102;DHT22;11720;51.214;22.574;2023-04-15T03:54:15;8.80;99.90
23102;DHT22;11720;51.214;22.574;2023-04-15T03:59:06;8.80;99.90
23102;DHT22;11720;51.214;22.574;2023-04-15T04:01:32;8.80;99.90
23102;DHT22;11720;51.214;22.574;2023-04-15T04:03:58;8.80;99.90
23102;DHT22;11720;51.214;22.574;2023-04-15T04:08:50;8.80;99.90
23102;DHT22;11720;51.214;22.574;2023-04-15T04:11:16;9.70;99.90
23102;DHT22;11720;51.214;22.574;2023-04-15T04:16:08;8.90;99.90
23102;DHT22;11720;51.214;22.574;2023-04-15T04:18:33;9.50;99.90
23102;DHT22;11720;51.214;22.574;2023-04-15T04:21:00;9.70;99.90
23102;DHT22;11720;51.214;22.574;2023-04-15T04:23:25;9.00;99.90
23102;DHT22;11720;51.214;22.574;2023-04-15T04:28:23;8.90;99.90
23102;DHT22;11720;51.214;22.574;2023-04-15T04:30:51;9.00;99.90
23102;DHT22;11720;51.214;22.574;2023-04-15T04:33:18;9.00;99.90
23102;DHT22;11720;51.214;22.574;2023-04-15T04:35:43;9.70;99.90
23102;DHT22;11720;51.214;22.574;2023-04-15T04:40:43;8.90;99.90
23102;DHT22;11720;51.214;22.574;2023-04-15T04:43:09;8.90;99.90
23102;DHT22;11720;51.214;22.574;2023-04-15T04:45:35;9.10;99.90
23102;DHT22;11720;51.214;22.574;2023-04-15T04:48:01;9.10;99.90
23102;DHT22;11720;51.214;22.574;2023-04-15T04:50:34;7.20;99.90
23102;DHT22;11720;51.214;22.574;2023-04-15T04:53:03;9.00;99.90
23102;DHT22;11720;51.214;22.574;2023-04-15T04:55:32;8.90;99.90
23102;DHT22;11720;51.214;22.574;2023-04-15T04:58:02;8.00;99.90
23102;DHT22;11720;51.214;22.574;2023-04-15T05:00:28;8.90;99.90
23102;DHT22;11720;51.214;22.574;2023-04-15T05:02:56;8.90;99.90
23102;DHT22;11720;51.214;22.574;2023-04-15T05:08:03;8.90;99.90
23102;DHT22;11720;51.214;22.574;2023-04-15T05:10:50;7.70;99.90
23102;DHT22;11720;51.214;22.574;2023-04-15T05:13:15;9.00;99.90
23102;DHT22;11720;51.214;22.574;2023-04-15T05:15:45;9.20;99.90
23102;DHT22;11720;51.214;22.574;2023-04-15T05:18:12;9.40;99.90
23102;DHT22;11720;51.214;22.574;2023-04-15T05:20:38;9.00;99.90
23102;DHT22;11720;51.214;22.574;2023-04-15T05:23:05;10.10;99.90
23102;DHT22;11720;51.214;22.574;2023-04-15T05:25:44;9.20;99.90
23102;DHT22;11720;51.214;22.574;2023-04-15T05:28:16;7.90;99.90
23102;DHT22;11720;51.214;22.574;2023-04-15T05:30:48;9.40;99.90
23102;DHT22;11720;51.214;22.574;2023-04-15T05:33:22;9.20;99.90
23102;DHT22;11720;51.214;22.574;2023-04-15T05:35:49;8.00;99.90
23102;DHT22;11720;51.214;22.574;2023-04-15T05:38:35;9.00;99.90
23102;DHT22;11720;51.214;22.574;2023-04-15T05:41:01;8.80;99.90
23102;DHT22;11720;51.214;22.574;2023-04-15T05:43:36;9.50;99.90
23102;DHT22;11720;51.214;22.574;2023-04-15T05:46:12;9.00;99.90
23102;DHT22;11720;51.214;22.574;2023-04-15T05:48:47;9.00;99.90
23102;DHT22;11720;51.214;22.574;2023-04-15T05:51:12;9.00;99.90
23102;DHT22;11720;51.214;22.574;2023-04-15T05:53:50;9.00;99.90
23102;DHT22;11720;51.214;22.574;2023-04-15T05:56:16;9.10;99.90
23102;DHT22;11720;51.214;22.574;2023-04-15T05:58:43;9.70;99.90
23102;DHT22;11720;51.214;22.574;2023-04-15T06:01:11;9.00;99.90
23102;DHT22;11720;51.214;22.574;2023-04-15T06:03:37;9.50;99.90
23102;DHT22;11720;51.214;22.574;2023-04-15T06:06:06;9.20;99.90
23102;DHT22;11720;51.214;22.574;2023-04-15T06:08:32;9.20;99.90
23102;DHT22;11720;51.214;22.574;2023-04-15T06:10:57;9.00;99.90
23102;DHT22;11720;51.214;22.574;2023-04-15T06:13:33;7.70;99.90
23102;DHT22;11720;51.214;22.574;2023-04-15T06:16:02;9.50;99.90
23102;DHT22;11720;51.214;22.574;2023-04-15T06:18:29;9.10;99.90
23102;DHT22;11720;51.214;22.574;2023-04-15T06:20:55;9.10;99.90
23102;DHT22;11720;51.214;22.574;2023-04-15T06:23:20;9.10;99.90
23102;DHT22;11720;51.214;22.574;2023-04-15T06:25:46;9.10;99.90
23102;DHT22;11720;51.214;22.574;2023-04-15T06:28:15;9.10;99.90
23102;DHT22;11720;51.214;22.574;2023-04-15T06:30:41;9.20;99.90
23102;DHT22;11720;51.214;22.574;2023-04-15T06:33:09;9.20;99.90
23102;DHT22;11720;51.214;22.574;2023-04-15T06:35:35;9.40;99.90
23102;DHT22;11720;51.214;22.574;2023-04-15T06:38:11;8.80;99.90
23102;DHT22;11720;51.214;22.574;2023-04-15T06:40:51;9.20;99.90
23102;DHT22;11720;51.214;22.574;2023-04-15T06:43:17;9.30;99.90
23102;DHT22;11720;51.214;22.574;2023-04-15T06:45:52;9.20;99.90
23102;DHT22;11720;51.214;22.574;2023-04-15T06:48:18;9.20;99.90
23102;DHT22;11720;51.214;22.574;2023-04-15T06:50:43;9.50;99.90
23102;DHT22;11720;51.214;22.574;2023-04-15T06:53:09;9.30;99.90
23102;DHT22;11720;51.214;22.574;2023-04-15T06:55:44;9.30;99.90
23102;DHT22;11720;51.214;22.574;2023-04-15T06:58:10;9.10;99.90
23102;DHT22;11720;51.214;22.574;2023-04-15T07:00:36;9.70;99.90
23102;DHT22;11720;51.214;22.574;2023-04-15T07:03:08;9.70;99.90
23102;DHT22;11720;51.214;22.574;2023-04-15T07:05:39;10.10;99.90
23102;DHT22;11720;51.214;22.574;2023-04-15T07:08:05;10.20;99.90
23102;DHT22;11720;51.214;22.574;2023-04-15T07:10:36;9.50;99.90
23102;DHT22;11720;51.214;22.574;2023-04-15T07:13:03;9.50;99.90
23102;DHT22;11720;51.214;22.574;2023-04-15T07:15:29;9.70;99.90
23102;DHT22;11720;51.214;22.574;2023-04-15T07:17:55;9.80;99.90
23102;DHT22;11720;51.214;22.574;2023-04-15T07:20:21;9.50;99.90
23102;DHT22;11720;51.214;22.574;2023-04-15T07:22:47;9.90;99.90
23102;DHT22;11720;51.214;22.574;2023-04-15T07:25:13;9.40;99.90
23102;DHT22;11720;51.214;22.574;2023-04-15T07:27:42;9.50;99.90
23102;DHT22;11720;51.214;22.574;2023-04-15T07:30:08;9.50;99.90
23102;DHT22;11720;51.214;22.574;2023-04-15T07:32:35;7.70;99.90
23102;DHT22;11720;51.214;22.574;2023-04-15T07:35:06;9.90;99.90
23102;DHT22;11720;51.214;22.574;2023-04-15T07:37:32;9.90;99.90
23102;DHT22;11720;51.214;22.574;2023-04-15T07:42:24;9.70;99.90
23102;DHT22;11720;51.214;22.574;2023-04-15T07:44:53;9.90;99.90
23102;DHT22;11720;51.214;22.574;2023-04-15T07:47:22;9.70;99.90
23102;DHT22;11720;51.214;22.574;2023-04-15T07:49:48;10.10;99.90
23102;DHT22;11720;51.214;22.574;2023-04-15T07:52:16;9.80;99.90
23102;DHT22;11720;51.214;22.574;2023-04-15T07:54:44;8.50;99.90
23102;DHT22;11720;51.214;22.574;2023-04-15T07:57:10;10.10;99.90
23102;DHT22;11720;51.214;22.574;2023-04-15T07:59:43;9.80;99.90
23102;DHT22;11720;51.214;22.574;2023-04-15T08:02:23;9.90;99.90
23102;DHT22;11720;51.214;22.574;2023-04-15T08:04:53;10.10;99.90
23102;DHT22;11720;51.214;22.574;2023-04-15T08:07:27;10.10;99.90
23102;DHT22;11720;51.214;22.574;2023-04-15T08:10:16;10.00;99.90
23102;DHT22;11720;51.214;22.574;2023-04-15T08:12:42;10.30;99.90
23102;DHT22;11720;51.214;22.574;2023-04-15T08:15:21;10.00;99.90
23102;DHT22;11720;51.214;22.574;2023-04-15T08:20:36;10.00;99.90
23102;DHT22;11720;51.214;22.574;2023-04-15T08:23:02;10.00;99.90
23102;DHT22;11720;51.214;22.574;2023-04-15T08:25:32;10.00;99.90
23102;DHT22;11720;51.214;22.574;2023-04-15T08:28:03;10.20;99.90
23102;DHT22;11720;51.214;22.574;2023-04-15T08:30:33;10.70;99.90
23102;DHT22;11720;51.214;22.574;2023-04-15T08:33:02;10.00;99.90
23102;DHT22;11720;51.214;22.574;2023-04-15T08:35:28;9.10;99.90
23102;DHT22;11720;51.214;22.574;2023-04-15T08:37:53;10.30;99.90
23102;DHT22;11720;51.214;22.574;2023-04-15T08:40:20;10.10;99.90
23102;DHT22;11720;51.214;22.574;2023-04-15T08:42:48;10.50;99.90
23102;DHT22;11720;51.214;22.574;2023-04-15T08:45:17;10.10;99.90
23102;DHT22;11720;51.214;22.574;2023-04-15T08:47:44;10.70;99.90
23102;DHT22;11720;51.214;22.574;2023-04-15T08:50:14;10.60;99.90
23102;DHT22;11720;51.214;22.574;2023-04-15T08:52:40;10.70;99.90
23102;DHT22;11720;51.214;22.574;2023-04-15T08:55:07;10.20;99.90
23102;DHT22;11720;51.214;22.574;2023-04-15T08:57:35;10.30;99.90
23102;DHT22;11720;51.214;22.574;2023-04-15T09:00:02;10.40;99.90
23102;DHT22;11720;51.214;22.574;2023-04-15T09:02:28;10.50;99.90
23102;DHT22;11720;51.214;22.574;2023-04-15T09:04:54;10.50;99.90
23102;DHT22;11720;51.214;22.574;2023-04-15T09:07:21;10.50;99.90
23102;DHT22;11720;51.214;22.574;2023-04-15T09:09:47;10.30;99.90
23102;DHT22;11720;51.214;22.574;2023-04-15T09:12:15;10.30;99.90
23102;DHT22;11720;51.214;22.574;2023-04-15T09:14:45;8.80;99.90
23102;DHT22;11720;51.214;22.574;2023-04-15T09:17:12;10.30;99.90
23102;DHT22;11720;51.214;22.574;2023-04-15T09:19:39;10.30;99.90
23102;DHT22;11720;51.214;22.574;2023-04-15T09:22:06;10.40;99.90
23102;DHT22;11720;51.214;22.574;2023-04-15T09:24:38;10.90;99.90
23102;DHT22;11720;51.214;22.574;2023-04-15T09:27:09;10.80;99.90
23102;DHT22;11720;51.214;22.574;2023-04-15T09:29:40;10.70;99.90
23102;DHT22;11720;51.214;22.574;2023-04-15T09:32:14;10.50;99.90
23102;DHT22;11720;51.214;22.574;2023-04-15T09:34:40;10.50;99.90
23102;DHT22;11720;51.214;22.574;2023-04-15T09:39:49;10.40;99.90
23102;DHT22;11720;51.214;22.574;2023-04-15T09:42:16;10.60;99.90
23102;DHT22;11720;51.214;22.574;2023-04-15T09:44:49;10.40;99.90
23102;DHT22;11720;51.214;22.574;2023-04-15T09:47:34;10.70;99.90
23102;DHT22;11720;51.214;22.574;2023-04-15T09:50:07;10.60;99.90
23102;DHT22;11720;51.214;22.574;2023-04-15T09:52:54;11.00;99.90
23102;DHT22;11720;51.214;22.574;2023-04-15T09:55:22;10.80;99.90
23102;DHT22;11720;51.214;22.574;2023-04-15T09:57:50;10.60;99.90
23102;DHT22;11720;51.214;22.574;2023-04-15T10:00:16;10.60;99.90
23102;DHT22;11720;51.214;22.574;2023-04-15T10:02:46;11.10;99.90
23102;DHT22;11720;51.214;22.574;2023-04-15T10:05:14;10.70;99.90
23102;DHT22;11720;51.214;22.574;2023-04-15T10:07:53;10.80;99.90
23102;DHT22;11720;51.214;22.574;2023-04-15T10:10:26;11.40;99.90
23102;DHT22;11720;51.214;22.574;2023-04-15T10:12:55;11.80;99.90
23102;DHT22;11720;51.214;22.574;2023-04-15T10:15:22;11.70;99.90
23102;DHT22;11720;51.214;22.574;2023-04-15T10:17:50;12.90;99.90
23102;DHT22;11720;51.214;22.574;2023-04-15T10:20:18;12.10;99.90
23102;DHT22;11720;51.214;22.574;2023-04-15T10:22:58;12.50;99.90
23102;DHT22;11720;51.214;22.574;2023-04-15T10:25:27;12.30;99.90
23102;DHT22;11720;51.214;22.574;2023-04-15T10:27:54;12.50;99.90
23102;DHT22;11720;51.214;22.574;2023-04-15T10:30:24;12.70;99.90
23102;DHT22;11720;51.214;22.574;2023-04-15T10:32:50;12.70;99.90
23102;DHT22;11720;51.214;22.574;2023-04-15T10:35:17;12.50;99.90
23102;DHT22;11720;51.214;22.574;2023-04-15T10:37:43;12.60;99.90
23102;DHT22;11720;51.214;22.574;2023-04-15T10:40:26;12.80;99.90
23102;DHT22;11720;51.214;22.574;2023-04-15T10:42:55;13.00;99.90
23102;DHT22;11720;51.214;22.574;2023-04-15T10:45:36;10.80;99.90
23102;DHT22;11720;51.214;22.574;2023-04-15T10:48:03;13.70;99.90
23102;DHT22;11720;51.214;22.574;2023-04-15T10:50:32;13.30;99.90
23102;DHT22;11720;51.214;22.574;2023-04-15T10:53:03;12.90;99.90
23102;DHT22;11720;51.214;22.574;2023-04-15T10:55:33;13.80;99.90
23102;DHT22;11720;51.214;22.574;2023-04-15T10:58:02;14.00;99.90
23102;DHT22;11720;51.214;22.574;2023-04-15T11:00:31;12.30;99.90
23102;DHT22;11720;51.214;22.574;2023-04-15T11:03:12;12.10;99.90
23102;DHT22;11720;51.214;22.574;2023-04-15T11:08:10;13.20;99.90
23102;DHT22;11720;51.214;22.574;2023-04-15T11:13:04;13.30;99.90
23102;DHT22;11720;51.214;22.574;2023-04-15T11:15:33;12.90;99.90
23102;DHT22;11720;51.214;22.574;2023-04-15T11:20:34;13.70;99.90
23102;DHT22;11720;51.214;22.574;2023-04-15T11:22:59;13.90;99.90
23102;DHT22;11720;51.214;22.574;2023-04-15T11:25:28;14.10;99.90
23102;DHT22;11720;51.214;22.574;2023-04-15T11:27:55;13.50;99.90
23102;DHT22;11720;51.214;22.574;2023-04-15T11:30:21;13.60;99.90
23102;DHT22;11720;51.214;22.574;2023-04-15T11:32:52;13.40;99.90
23102;DHT22;11720;51.214;22.574;2023-04-15T11:35:18;13.30;99.90
23102;DHT22;11720;51.214;22.574;2023-04-15T11:37:44;13.20;99.90
23102;DHT22;11720;51.214;22.574;2023-04-15T11:40:11;13.20;99.90
23102;DHT22;11720;51.214;22.574;2023-04-15T11:42:40;13.50;99.90
23102;DHT22;11720;51.214;22.574;2023-04-15T11:45:14;13.50;99.90
23102;DHT22;11720;51.214;22.574;2023-04-15T11:47:43;13.50;99.90
23102;DHT22;11720;51.214;22.574;2023-04-15T11:50:18;12.70;99.90
23102;DHT22;11720;51.214;22.574;2023-04-15T11:52:57;13.50;99.90
23102;DHT22;11720;51.214;22.574;2023-04-15T11:55:24;13.30;99.90
23102;DHT22;11720;51.214;22.574;2023-04-15T12:00:35;16.30;99.90
23102;DHT22;11720;51.214;22.574;2023-04-15T12:03:28;14.60;99.90
23102;DHT22;11720;51.214;22.574;2023-04-15T12:06:08;13.40;99.90
23102;DHT22;11720;51.214;22.574;2023-04-15T12:11:37;13.50;99.90
23102;DHT22;11720;51.214;22.574;2023-04-15T12:14:11;13.40;99.90
23102;DHT22;11720;51.214;22.574;2023-04-15T12:16:45;13.10;99.90
23102;DHT22;11720;51.214;22.574;2023-04-15T12:19:18;13.90;99.90
23102;DHT22;11720;51.214;22.574;2023-04-15T12:21:50;14.00;99.90
23102;DHT22;11720;51.214;22.574;2023-04-15T12:27:39;14.00;99.90
23102;DHT22;11720;51.214;22.574;2023-04-15T12:30:05;14.40;99.90
23102;DHT22;11720;51.214;22.574;2023-04-15T12:32:34;14.40;99.90
23102;DHT22;11720;51.214;22.574;2023-04-15T12:35:00;14.60;99.90
23102;DHT22;11720;51.214;22.574;2023-04-15T12:37:29;14.70;99.90
23102;DHT22;11720;51.214;22.574;2023-04-15T12:39:58;15.10;99.90
23102;DHT22;11720;51.214;22.574;2023-04-15T12:42:24;14.90;99.90
23102;DHT22;11720;51.214;22.574;2023-04-15T12:44:53;14.90;99.90
23102;DHT22;11720;51.214;22.574;2023-04-15T12:47:19;14.00;99.90
23102;DHT22;11720;51.214;22.574;2023-04-15T12:52:11;16.00;99.90
23102;DHT22;11720;51.214;22.574;2023-04-15T12:54:38;13.70;99.90
23102;DHT22;11720;51.214;22.574;2023-04-15T12:57:04;16.20;99.90
23102;DHT22;11720;51.214;22.574;2023-04-15T12:59:30;16.60;99.90
23102;DHT22;11720;51.214;22.574;2023-04-15T13:04:22;16.90;99.90
23102;DHT22;11720;51.214;22.574;2023-04-15T13:06:48;17.10;99.90
23102;DHT22;11720;51.214;22.574;2023-04-15T13:11:40;17.40;99.90
23102;DHT22;11720;51.214;22.574;2023-04-15T13:14:08;17.70;99.90
23102;DHT22;11720;51.214;22.574;2023-04-15T13:16:36;16.80;99.90
23102;DHT22;11720;51.214;22.574;2023-04-15T13:19:02;16.20;99.90
23102;DHT22;11720;51.214;22.574;2023-04-15T13:21:31;15.90;99.90
23102;DHT22;11720;51.214;22.574;2023-04-15T13:23:59;15.80;99.90
23102;DHT22;11720;51.214;22.574;2023-04-15T13:26:28;15.80;99.90
23102;DHT22;11720;51.214;22.574;2023-04-15T13:28:54;16.30;99.90
23102;DHT22;11720;51.214;22.574;2023-04-15T13:31:19;16.70;99.90
23102;DHT22;11720;51.214;22.574;2023-04-15T13:33:55;17.50;99.90
23102;DHT22;11720;51.214;22.574;2023-04-15T13:36:29;18.10;97.30
23102;DHT22;11720;51.214;22.574;2023-04-15T13:38:55;17.30;96.60
23102;DHT22;11720;51.214;22.574;2023-04-15T13:41:28;17.20;99.30
23102;DHT22;11720;51.214;22.574;2023-04-15T13:43:53;16.50;98.50
23102;DHT22;11720;51.214;22.574;2023-04-15T13:48:47;16.00;98.60
23102;DHT22;11720;51.214;22.574;2023-04-15T13:51:15;16.10;99.90
23102;DHT22;11720;51.214;22.574;2023-04-15T13:53:42;16.40;98.80
23102;DHT22;11720;51.214;22.574;2023-04-15T13:56:08;16.40;98.00
23102;DHT22;11720;51.214;22.574;2023-04-15T13:58:39;16.40;99.10
23102;DHT22;11720;51.214;22.574;2023-04-15T14:01:05;16.20;99.90
23102;DHT22;11720;51.214;22.574;2023-04-15T14:03:31;16.40;99.90
23102;DHT22;11720;51.214;22.574;2023-04-15T14:05:57;16.80;99.90
23102;DHT22;11720;51.214;22.574;2023-04-15T14:08:24;16.90;99.90
23102;DHT22;11720;51.214;22.574;2023-04-15T14:10:50;16.40;99.90
23102;DHT22;11720;51.214;22.574;2023-04-15T14:15:43;16.30;99.90
23102;DHT22;11720;51.214;22.574;2023-04-15T14:18:09;16.20;99.90
23102;DHT22;11720;51.214;22.574;2023-04-15T14:20:35;16.70;99.90
23102;DHT22;11720;51.214;22.574;2023-04-15T14:23:01;16.60;99.90
23102;DHT22;11720;51.214;22.574;2023-04-15T14:25:27;16.70;99.90
23102;DHT22;11720;51.214;22.574;2023-04-15T14:27:52;16.60;99.90
23102;DHT22;11720;51.214;22.574;2023-04-15T14:30:18;16.50;99.90
23102;DHT22;11720;51.214;22.574;2023-04-15T14:32:44;16.00;99.90
23102;DHT22;11720;51.214;22.574;2023-04-15T14:35:10;15.70;99.90
23102;DHT22;11720;51.214;22.574;2023-04-15T14:37:36;16.00;99.90
23102;DHT22;11720;51.214;22.574;2023-04-15T14:40:01;16.10;99.90
23102;DHT22;11720;51.214;22.574;2023-04-15T14:42:27;15.90;99.90
23102;DHT22;11720;51.214;22.574;2023-04-15T14:44:53;15.70;99.90
23102;DHT22;11720;51.214;22.574;2023-04-15T14:47:18;15.70;99.90
23102;DHT22;11720;51.214;22.574;2023-04-15T14:49:44;15.70;99.90
23102;DHT22;11720;51.214;22.574;2023-04-15T14:52:11;14.80;99.90
23102;DHT22;11720;51.214;22.574;2023-04-15T14:54:37;15.50;99.90
23102;DHT22;11720;51.214;22.574;2023-04-15T14:57:02;15.30;99.90
23102;DHT22;11720;51.214;22.574;2023-04-15T14:59:28;14.90;99.90
23102;DHT22;11720;51.214;22.574;2023-04-15T15:01:54;14.60;99.90
23102;DHT22;11720;51.214;22.574;2023-04-15T15:04:20;14.40;99.90
23102;DHT22;11720;51.214;22.574;2023-04-15T15:06:46;14.10;99.90
23102;DHT22;11720;51.214;22.574;2023-04-15T15:09:12;14.00;99.90
23102;DHT22;11720;51.214;22.574;2023-04-15T15:11:39;13.70;99.90
23102;DHT22;11720;51.214;22.574;2023-04-15T15:14:05;13.70;99.90
23102;DHT22;11720;51.214;22.574;2023-04-15T15:16:31;13.50;99.90
23102;DHT22;11720;51.214;22.574;2023-04-15T15:18:59;13.50;99.90
23102;DHT22;11720;51.214;22.574;2023-04-15T15:21:24;13.20;99.90
23102;DHT22;11720;51.214;22.574;2023-04-15T15:23:53;13.20;99.90
23102;DHT22;11720;51.214;22.574;2023-04-15T15:26:22;11.10;99.90
23102;DHT22;11720;51.214;22.574;2023-04-15T15:28:49;13.10;99.90
23102;DHT22;11720;51.214;22.574;2023-04-15T15:31:24;12.70;99.90
23102;DHT22;11720;51.214;22.574;2023-04-15T15:33:50;12.80;99.90
23102;DHT22;11720;51.214;22.574;2023-04-15T15:36:17;12.60;99.90
23102;DHT22;11720;51.214;22.574;2023-04-15T15:38:43;12.50;99.90
23102;DHT22;11720;51.214;22.574;2023-04-15T15:41:08;12.50;99.90
23102;DHT22;11720;51.214;22.574;2023-04-15T15:43:34;12.60;99.90
23102;DHT22;11720;51.214;22.574;2023-04-15T15:46:03;12.40;99.90
23102;DHT22;11720;51.214;22.574;2023-04-15T15:48:29;12.60;99.90
23102;DHT22;11720;51.214;22.574;2023-04-15T15:50:54;12.30;99.90
23102;DHT22;11720;51.214;22.574;2023-04-15T15:53:23;12.80;99.90
23102;DHT22;11720;51.214;22.574;2023-04-15T15:55:50;12.30;99.90
23102;DHT22;11720;51.214;22.574;2023-04-15T15:58:19;12.20;99.90
23102;DHT22;11720;51.214;22.574;2023-04-15T16:00:45;12.20;99.90
23102;DHT22;11720;51.214;22.574;2023-04-15T16:03:11;12.10;99.90
23102;DHT22;11720;51.214;22.574;2023-04-15T16:08:06;11.50;99.90
23102;DHT22;11720;51.214;22.574;2023-04-15T16:10:35;12.20;99.90
23102;DHT22;11720;51.214;22.574;2023-04-15T16:13:02;11.90;99.90
23102;DHT22;11720;51.214;22.574;2023-04-15T16:15:28;11.60;99.90
23102;DHT22;11720;51.214;22.574;2023-04-15T16:17:54;11.60;99.90
23102;DHT22;11720;51.214;22.574;2023-04-15T16:20:19;11.70;99.90
23102;DHT22;11720;51.214;22.574;2023-04-15T16:25:11;11.40;99.90
23102;DHT22;11720;51.214;22.574;2023-04-15T16:27:37;11.60;99.90
23102;DHT22;11720;51.214;22.574;2023-04-15T16:30:04;11.30;99.90
23102;DHT22;11720;51.214;22.574;2023-04-15T16:32:31;11.80;99.90
23102;DHT22;11720;51.214;22.574;2023-04-15T16:34:57;11.30;99.90
23102;DHT22;11720;51.214;22.574;2023-04-15T16:37:27;11.00;99.90
23102;DHT22;11720;51.214;22.574;2023-04-15T16:40:10;10.00;99.90
23102;DHT22;11720;51.214;22.574;2023-04-15T16:42:36;11.30;99.90
23102;DHT22;11720;51.214;22.574;2023-04-15T16:45:01;11.00;99.90
23102;DHT22;11720;51.214;22.574;2023-04-15T16:47:30;10.90;99.90
23102;DHT22;11720;51.214;22.574;2023-04-15T16:49:57;10.90;99.90